createdAt,value
2023-05-20T00:00:49.885Z,15.49
2023-05-20T00:03:39.201Z,15.47
2023-05-20T00:06:27.129Z,15.57
2023-05-20T00:09:14.919Z,15.59
2023-05-20T00:12:02.687Z,15.55
2023-05-20T00:14:50.355Z,15.64
2023-05-20T00:17:38.183Z,15.44
2023-05-20T00:20:27.370Z,15.50
2023-05-20T00:23:15.171Z,15.44
2023-05-20T00:26:02.985Z,15.62
2023-05-20T00:28:50.713Z,15.54
2023-05-20T00:31:39.000Z,15.58
2023-05-20T00:34:26.745Z,15.48
2023-05-20T00:37:15.932Z,15.38
2023-05-20T00:40:04.117Z,15.42
2023-05-20T00:42:51.963Z,15.18
2023-05-20T00:45:40.252Z,15.45
2023-05-20T00:48:33.172Z,15.37
2023-05-20T00:51:21.589Z,15.35
2023-05-20T00:54:11.670Z,15.38
2023-05-20T00:57:03.225Z,15.30
2023-05-20T00:59:51.247Z,15.30
2023-05-20T01:02:39.336Z,15.37
2023-05-20T01:05:27.377Z,15.50
2023-05-20T01:08:15.473Z,15.64
2023-05-20T01:11:09.704Z,15.40
2023-05-20T01:14:02.548Z,15.47
2023-05-20T01:16:53.903Z,15.22
2023-05-20T01:19:44.162Z,15.24
2023-05-20T01:22:33.444Z,15.21
2023-05-20T01:25:21.728Z,15.34
2023-05-20T01:28:10.276Z,14.80
2023-05-20T01:31:01.856Z,15.04
2023-05-20T01:33:53.071Z,15.07
2023-05-20T01:36:41.330Z,14.75
2023-05-20T01:39:31.991Z,15.05
2023-05-20T01:42:21.316Z,14.97
2023-05-20T01:45:09.916Z,14.87
2023-05-20T01:47:57.686Z,14.77
2023-05-20T01:50:45.528Z,14.73
2023-05-20T01:53:33.264Z,14.62
2023-05-20T01:56:22.464Z,14.53
2023-05-20T01:59:10.537Z,14.66
2023-05-20T02:01:58.301Z,14.83
2023-05-20T02:04:48.387Z,14.86
2023-05-20T02:07:36.153Z,14.74
2023-05-20T02:10:23.953Z,14.68
2023-05-20T02:13:13.220Z,14.91
2023-05-20T02:16:00.873Z,14.91
2023-05-20T02:18:48.459Z,14.91
2023-05-20T02:21:36.409Z,14.96
2023-05-20T02:24:24.169Z,15.03
2023-05-20T02:27:12.059Z,14.63
2023-05-20T02:30:02.102Z,15.03
2023-05-20T02:32:49.940Z,15.12
2023-05-20T02:35:38.097Z,14.72
2023-05-20T02:38:25.906Z,15.14
2023-05-20T02:41:13.595Z,15.19
2023-05-20T02:44:01.416Z,15.00
2023-05-20T02:46:50.706Z,14.87
2023-05-20T02:49:38.390Z,14.99
2023-05-20T02:52:26.319Z,14.90
2023-05-20T02:55:14.180Z,14.71
2023-05-20T02:58:02.210Z,14.80
2023-05-20T03:00:49.926Z,14.65
2023-05-20T03:03:40.797Z,14.77
2023-05-20T03:06:29.979Z,14.84
2023-05-20T03:09:18.812Z,14.58
2023-05-20T03:12:07.265Z,14.75
2023-05-20T03:14:55.440Z,14.74
2023-05-20T03:17:43.237Z,14.84
2023-05-20T03:20:33.365Z,14.82
2023-05-20T03:23:21.472Z,14.70
2023-05-20T03:26:09.153Z,14.75
2023-05-20T03:28:56.857Z,14.87
2023-05-20T03:31:45.069Z,14.70
2023-05-20T03:34:32.880Z,14.79
2023-05-20T03:37:21.974Z,14.82
2023-05-20T03:40:11.443Z,14.70
2023-05-20T03:42:59.217Z,14.94
2023-05-20T03:45:46.965Z,14.88
2023-05-20T03:48:34.800Z,14.91
2023-05-20T03:51:22.875Z,14.91
2023-05-20T03:54:12.213Z,14.73
2023-05-20T03:57:00.965Z,14.62
2023-05-20T03:59:48.708Z,14.77
2023-05-20T04:02:36.685Z,14.68
2023-05-20T04:05:25.086Z,14.80
2023-05-20T04:08:13.932Z,14.76
2023-05-20T04:11:03.127Z,14.82
2023-05-20T04:13:50.925Z,14.78
2023-05-20T04:16:38.968Z,14.77
2023-05-20T04:19:28.632Z,14.75
2023-05-20T04:22:16.456Z,14.85
2023-05-20T04:25:06.664Z,14.79
2023-05-20T04:27:57.909Z,14.88
2023-05-20T04:30:46.284Z,14.98
2023-05-20T04:33:37.882Z,14.95
2023-05-20T04:36:28.858Z,14.87
2023-05-20T04:39:16.752Z,15.08
2023-05-20T04:42:04.945Z,15.18
2023-05-20T04:44:54.136Z,15.30
2023-05-20T04:47:42.161Z,15.32
2023-05-20T04:50:29.955Z,15.14
2023-05-20T04:53:18.176Z,15.58
2023-05-20T04:56:06.403Z,15.75
2023-05-20T04:58:54.432Z,15.91
2023-05-20T05:01:43.740Z,15.94
2023-05-20T05:04:31.514Z,16.06
2023-05-20T05:07:19.297Z,16.09
2023-05-20T05:10:07.944Z,16.05
2023-05-20T05:12:55.725Z,15.97
2023-05-20T05:15:43.420Z,16.36
2023-05-20T05:18:32.616Z,16.47
2023-05-20T05:21:20.441Z,16.51
2023-05-20T05:24:08.465Z,16.51
2023-05-20T05:26:56.698Z,16.67
2023-05-20T05:29:44.393Z,16.63
2023-05-20T05:32:32.472Z,16.52
2023-05-20T05:35:21.612Z,16.60
2023-05-20T05:38:09.892Z,16.76
2023-05-20T05:40:57.624Z,16.77
2023-05-20T05:43:45.321Z,16.88
2023-05-20T05:46:34.797Z,16.95
2023-05-20T05:49:22.770Z,16.95
2023-05-20T05:52:13.480Z,16.87
2023-05-20T05:55:01.225Z,17.01
2023-05-20T05:57:48.993Z,17.16
2023-05-20T06:00:41.472Z,17.20
2023-05-20T06:03:30.155Z,17.17
2023-05-20T06:06:18.007Z,17.33
2023-05-20T06:09:07.266Z,17.38
2023-05-20T06:11:55.131Z,17.06
2023-05-20T06:14:45.263Z,17.61
2023-05-20T06:17:33.097Z,17.55
2023-05-20T06:20:21.111Z,17.48
2023-05-20T06:23:08.943Z,17.76
2023-05-20T06:26:01.242Z,17.78
2023-05-20T06:28:48.978Z,17.70
2023-05-20T06:31:36.625Z,17.78
2023-05-20T06:34:24.497Z,17.82
2023-05-20T06:37:12.527Z,17.86
2023-05-20T06:40:00.558Z,17.99
2023-05-20T06:42:49.656Z,18.13
2023-05-20T06:45:37.454Z,18.11
2023-05-20T06:48:25.224Z,18.17
2023-05-20T06:51:13.266Z,18.13
2023-05-20T06:54:01.098Z,18.25
2023-05-20T06:56:48.623Z,18.31
2023-05-20T06:59:38.297Z,18.49
2023-05-20T07:02:26.734Z,18.59
2023-05-20T07:05:14.428Z,18.66
2023-05-20T07:08:02.192Z,18.60
2023-05-20T07:10:49.917Z,18.68
2023-05-20T07:13:37.758Z,18.76
2023-05-20T07:16:27.039Z,18.83
2023-05-20T07:19:14.858Z,18.86
2023-05-20T07:22:02.776Z,18.97
2023-05-20T07:24:50.803Z,18.58
2023-05-20T07:27:38.836Z,19.01
2023-05-20T07:30:26.614Z,19.02
2023-05-20T07:33:15.997Z,19.12
2023-05-20T07:36:03.753Z,19.20
2023-05-20T07:39:01.869Z,19.35
2023-05-20T07:41:51.369Z,19.31
2023-05-20T07:44:39.164Z,19.13
2023-05-20T07:47:27.040Z,19.32
2023-05-20T07:50:16.251Z,19.43
2023-05-20T07:53:03.943Z,19.38
2023-05-20T07:55:51.663Z,19.23
2023-05-20T07:58:39.385Z,19.38
2023-05-20T08:01:27.477Z,19.64
2023-05-20T08:04:15.334Z,19.51
2023-05-20T08:07:04.532Z,19.34
2023-05-20T08:09:52.268Z,19.34
2023-05-20T08:12:40.089Z,19.44
2023-05-20T08:15:27.801Z,19.48
2023-05-20T08:18:15.920Z,19.66
2023-05-20T08:21:05.110Z,19.60
2023-05-20T08:23:54.307Z,19.49
2023-05-20T08:26:42.057Z,19.44
2023-05-20T08:29:29.889Z,19.61
2023-05-20T08:32:17.667Z,19.97
2023-05-20T08:35:06.813Z,19.95
2023-05-20T08:37:55.153Z,20.07
2023-05-20T08:40:44.298Z,20.23
2023-05-20T08:43:32.739Z,20.07
2023-05-20T08:46:23.065Z,20.17
2023-05-20T08:49:10.920Z,20.10
2023-05-20T08:52:00.173Z,20.36
2023-05-20T08:54:50.661Z,20.54
2023-05-20T08:57:42.126Z,20.58
2023-05-20T09:00:29.948Z,20.41
2023-05-20T09:03:18.022Z,20.39
2023-05-20T09:06:07.493Z,20.35
2023-05-20T09:08:55.277Z,20.35
2023-05-20T09:11:43.354Z,20.31
2023-05-20T09:14:32.974Z,20.05
2023-05-20T09:17:22.484Z,19.84
2023-05-20T09:20:12.256Z,19.77
2023-05-20T09:23:01.618Z,19.92
2023-05-20T09:25:52.053Z,20.10
2023-05-20T09:28:41.115Z,20.00
2023-05-20T09:31:34.102Z,19.93
2023-05-20T09:34:22.483Z,19.75
2023-05-20T09:37:11.302Z,19.55
2023-05-20T09:40:04.137Z,19.55
2023-05-20T09:42:54.942Z,18.99
2023-05-20T09:45:43.660Z,19.43
2023-05-20T09:48:34.031Z,19.47
2023-05-20T09:51:24.793Z,19.42
2023-05-20T09:54:13.942Z,19.34
2023-05-20T09:57:01.848Z,19.21
2023-05-20T09:59:51.569Z,19.22
2023-05-20T10:02:39.443Z,19.17
2023-05-20T10:05:32.066Z,19.39
2023-05-20T10:08:52.556Z,19.31
2023-05-20T10:11:49.999Z,19.34
2023-05-20T10:14:49.848Z,19.45
2023-05-20T10:17:46.173Z,19.37
2023-05-20T10:20:46.737Z,19.50
2023-05-20T10:23:34.541Z,19.68
2023-05-20T10:26:22.511Z,19.67
2023-05-20T10:29:17.661Z,19.65
2023-05-20T10:32:05.868Z,19.80
2023-05-20T10:34:53.675Z,19.95
2023-05-20T10:37:45.973Z,20.03
2023-05-20T10:40:34.019Z,20.09
2023-05-20T10:43:28.191Z,20.10
2023-05-20T10:46:31.152Z,19.91
2023-05-20T10:49:27.154Z,19.75
2023-05-20T10:52:16.272Z,19.84
2023-05-20T10:55:06.005Z,19.88
2023-05-20T10:57:53.798Z,19.83
2023-05-20T11:00:42.073Z,19.87
2023-05-20T11:03:31.227Z,19.91
2023-05-20T11:06:19.843Z,19.77
2023-05-20T11:09:07.998Z,19.79
2023-05-20T11:11:57.254Z,19.80
2023-05-20T11:14:45.114Z,19.91
2023-05-20T11:17:33.704Z,19.93
2023-05-20T11:20:21.654Z,20.13
2023-05-20T11:23:13.899Z,20.15
2023-05-20T11:26:02.538Z,20.24
2023-05-20T11:28:51.941Z,20.34
2023-05-20T11:31:40.260Z,20.47
2023-05-20T11:34:34.253Z,20.47
2023-05-20T11:37:23.336Z,20.66
2023-05-20T11:40:13.369Z,20.77
2023-05-20T11:43:02.615Z,20.67
2023-05-20T11:45:55.566Z,20.48
2023-05-20T11:48:53.083Z,20.44
2023-05-20T11:51:41.179Z,20.34
2023-05-20T11:54:29.082Z,20.34
2023-05-20T11:57:16.871Z,20.35
2023-05-20T12:00:07.230Z,20.25
2023-05-20T12:02:56.816Z,20.24
2023-05-20T12:05:45.130Z,20.29
2023-05-20T12:08:32.938Z,20.24
2023-05-20T12:11:21.869Z,20.16
2023-05-20T12:14:10.127Z,20.00
2023-05-20T12:16:58.178Z,20.02
2023-05-20T12:19:47.470Z,20.11
2023-05-20T12:22:35.512Z,20.14
2023-05-20T12:25:23.928Z,20.10
2023-05-20T12:28:11.762Z,20.21
2023-05-20T12:30:59.930Z,20.18
2023-05-20T12:33:48.020Z,20.08
2023-05-20T12:36:37.907Z,19.97
2023-05-20T12:39:25.637Z,19.97
2023-05-20T12:42:13.488Z,20.02
2023-05-20T12:45:01.160Z,20.10
2023-05-20T12:47:49.494Z,20.19
2023-05-20T12:50:37.582Z,20.25
2023-05-20T12:53:27.027Z,20.25
2023-05-20T12:56:14.770Z,20.37
2023-05-20T12:59:02.588Z,20.30
2023-05-20T13:01:50.432Z,20.00
2023-05-20T13:04:38.291Z,19.83
2023-05-20T13:07:26.899Z,19.86
2023-05-20T13:10:17.282Z,20.05
2023-05-20T13:13:05.196Z,20.07
2023-05-20T13:15:53.216Z,20.23
2023-05-20T13:18:41.097Z,20.35
2023-05-20T13:21:28.933Z,20.35
2023-05-20T13:24:17.026Z,20.31
2023-05-20T13:27:06.950Z,20.12
2023-05-20T13:29:54.791Z,20.40
2023-05-20T13:32:42.654Z,20.41
2023-05-20T13:35:30.455Z,20.17
2023-05-20T13:38:18.272Z,20.29
2023-05-20T13:41:06.247Z,20.35
2023-05-20T13:43:55.434Z,20.42
2023-05-20T13:46:43.225Z,20.49
2023-05-20T13:49:31.121Z,20.52
2023-05-20T13:52:18.956Z,20.45
2023-05-20T13:55:07.831Z,20.60
2023-05-20T13:57:56.141Z,20.76
2023-05-20T14:00:47.606Z,20.76
2023-05-20T14:03:37.454Z,20.74
2023-05-20T14:06:25.357Z,20.45
2023-05-20T14:09:13.205Z,20.49
2023-05-20T14:12:01.058Z,20.53
2023-05-20T14:14:48.782Z,20.62
2023-05-20T14:17:38.224Z,20.61
2023-05-20T14:20:26.315Z,20.63
2023-05-20T14:23:14.461Z,20.60
2023-05-20T14:26:02.318Z,20.62
2023-05-20T14:28:50.358Z,20.64
2023-05-20T14:31:38.806Z,20.63
2023-05-20T14:34:28.013Z,20.69
2023-05-20T14:37:16.007Z,20.46
2023-05-20T14:40:07.563Z,20.32
2023-05-20T14:42:55.534Z,20.50
2023-05-20T14:45:43.392Z,20.47
2023-05-20T14:48:31.505Z,20.56
2023-05-20T14:51:20.700Z,20.64
2023-05-20T14:54:09.296Z,20.58
2023-05-20T14:56:57.009Z,20.57
2023-05-20T14:59:44.860Z,20.53
2023-05-20T15:02:32.867Z,20.54
2023-05-20T15:05:20.823Z,20.49
2023-05-20T15:08:09.910Z,20.50
2023-05-20T15:10:57.723Z,20.54
2023-05-20T15:13:46.543Z,20.52
2023-05-20T15:16:34.410Z,20.44
2023-05-20T15:19:22.294Z,20.44
2023-05-20T15:22:10.173Z,20.59
2023-05-20T15:24:59.338Z,20.53
2023-05-20T15:27:47.166Z,20.26
2023-05-20T15:30:35.164Z,20.56
2023-05-20T15:33:24.024Z,20.47
2023-05-20T15:36:12.002Z,20.40
2023-05-20T15:38:59.639Z,20.43
2023-05-20T15:41:50.059Z,20.40
2023-05-20T15:44:37.829Z,20.51
2023-05-20T15:47:26.058Z,20.40
2023-05-20T15:50:13.888Z,20.20
2023-05-20T15:53:01.700Z,20.37
2023-05-20T15:55:49.454Z,20.30
2023-05-20T15:58:38.617Z,20.34
2023-05-20T16:01:27.120Z,20.32
2023-05-20T16:04:14.945Z,20.35
2023-05-20T16:07:02.712Z,20.23
2023-05-20T16:09:50.417Z,20.26
2023-05-20T16:12:38.125Z,20.24
2023-05-20T16:15:27.190Z,20.26
2023-05-20T16:18:14.847Z,20.21
2023-05-20T16:21:02.602Z,20.26
2023-05-20T16:23:50.278Z,20.21
2023-05-20T16:26:38.116Z,20.25
2023-05-20T16:29:25.827Z,20.11
2023-05-20T16:32:14.962Z,20.21
2023-05-20T16:35:02.765Z,20.18
2023-05-20T16:37:50.532Z,20.13
2023-05-20T16:40:38.236Z,20.11
2023-05-20T16:43:26.072Z,20.10
2023-05-20T16:46:14.650Z,19.99
2023-05-20T16:49:03.979Z,20.09
2023-05-20T16:51:52.415Z,19.97
2023-05-20T16:54:40.385Z,19.99
2023-05-20T16:57:28.122Z,20.12
2023-05-20T17:00:16.416Z,19.75
2023-05-20T17:03:04.325Z,19.43
2023-05-20T17:05:53.495Z,19.55
2023-05-20T17:08:41.272Z,19.35
2023-05-20T17:11:29.037Z,19.30
2023-05-20T17:14:16.753Z,19.18
2023-05-20T17:17:04.675Z,19.29
2023-05-20T17:19:52.526Z,19.16
2023-05-20T17:22:41.644Z,19.05
2023-05-20T17:25:29.409Z,18.96
2023-05-20T17:28:17.197Z,18.78
2023-05-20T17:31:05.073Z,18.93
2023-05-20T17:33:52.976Z,18.72
2023-05-20T17:36:40.700Z,18.70
2023-05-20T17:39:29.830Z,18.74
2023-05-20T17:42:17.552Z,18.73
2023-05-20T17:45:06.128Z,18.83
2023-05-20T17:47:53.865Z,18.56
2023-05-20T17:50:42.119Z,18.56
2023-05-20T17:53:30.089Z,18.68
2023-05-20T17:56:19.305Z,18.51
2023-05-20T17:59:06.982Z,18.47
2023-05-20T18:01:54.764Z,18.41
2023-05-20T18:04:42.547Z,18.52
2023-05-20T18:07:30.540Z,18.46
2023-05-20T18:10:18.323Z,18.67
2023-05-20T18:13:07.445Z,18.60
2023-05-20T18:15:55.204Z,18.32
2023-05-20T18:18:42.966Z,18.42
2023-05-20T18:21:30.760Z,18.36
2023-05-20T18:24:19.232Z,18.38
2023-05-20T18:27:07.385Z,18.78
2023-05-20T18:29:56.481Z,18.38
2023-05-20T18:32:44.182Z,18.30
2023-05-20T18:35:31.910Z,18.62
2023-05-20T18:38:19.582Z,18.47
2023-05-20T18:41:07.310Z,18.44
2023-05-20T18:43:55.083Z,18.27
2023-05-20T18:46:44.325Z,18.32
2023-05-20T18:49:32.104Z,18.35
2023-05-20T18:52:19.767Z,18.36
2023-05-20T18:55:08.489Z,18.25
2023-05-20T18:57:56.373Z,18.53
2023-05-20T19:00:44.190Z,18.12
2023-05-20T19:03:33.341Z,18.17
2023-05-20T19:06:22.049Z,18.05
2023-05-20T19:09:09.821Z,18.07
2023-05-20T19:11:59.147Z,18.31
2023-05-20T19:14:46.940Z,17.99
2023-05-20T19:17:34.818Z,18.22
2023-05-20T19:20:24.112Z,18.30
2023-05-20T19:23:11.812Z,18.36
2023-05-20T19:25:59.638Z,18.26
2023-05-20T19:28:47.612Z,18.12
2023-05-20T19:31:35.541Z,17.96
2023-05-20T19:34:23.315Z,17.87
2023-05-20T19:37:12.344Z,17.62
2023-05-20T19:40:00.078Z,17.55
2023-05-20T19:42:47.890Z,17.52
2023-05-20T19:45:36.827Z,17.60
2023-05-20T19:48:24.708Z,17.52
2023-05-20T19:51:12.415Z,17.32
2023-05-20T19:54:01.530Z,17.17
2023-05-20T19:56:49.365Z,17.13
2023-05-20T19:59:38.119Z,16.99
2023-05-20T20:02:26.256Z,17.07
2023-05-20T20:05:14.272Z,17.13
2023-05-20T20:08:03.878Z,16.73
2023-05-20T20:10:53.097Z,17.10
2023-05-20T20:13:40.827Z,16.95
2023-05-20T20:16:29.363Z,17.17
2023-05-20T20:19:22.921Z,17.19
2023-05-20T20:22:11.106Z,17.14
2023-05-20T20:24:58.822Z,17.22
2023-05-20T20:27:48.599Z,16.90
2023-05-20T20:30:36.705Z,17.05
2023-05-20T20:33:24.552Z,16.85
2023-05-20T20:36:12.341Z,16.80
2023-05-20T20:39:02.800Z,16.77
2023-05-20T20:41:51.444Z,16.89
2023-05-20T20:44:42.653Z,16.91
2023-05-20T20:47:31.479Z,15.55
2023-05-20T20:50:19.159Z,16.91
2023-05-20T20:53:06.898Z,16.85
2023-05-20T20:55:57.035Z,16.85
2023-05-20T20:58:45.074Z,16.84
2023-05-20T21:01:37.895Z,16.59
2023-05-20T21:04:27.739Z,16.84
2023-05-20T21:07:18.110Z,16.83
2023-05-20T21:10:07.421Z,16.60
2023-05-20T21:12:55.173Z,16.80
2023-05-20T21:15:43.128Z,16.92
2023-05-20T21:18:32.197Z,16.76
2023-05-20T21:21:21.698Z,16.69
2023-05-20T21:24:09.714Z,16.64
2023-05-20T21:26:57.669Z,16.68
2023-05-20T21:29:45.405Z,16.64
2023-05-20T21:32:33.690Z,16.66
2023-05-20T21:35:26.036Z,16.49
2023-05-20T21:38:14.275Z,16.49
2023-05-20T21:41:02.037Z,16.63
2023-05-20T21:43:49.751Z,16.45
2023-05-20T21:46:37.547Z,16.63
2023-05-20T21:49:26.701Z,16.61
2023-05-20T21:52:15.744Z,16.64
2023-05-20T21:55:03.477Z,16.81
2023-05-20T21:57:51.461Z,16.84
2023-05-20T22:00:40.601Z,16.97
2023-05-20T22:03:28.525Z,16.84
2023-05-20T22:06:17.168Z,16.75
2023-05-20T22:09:06.716Z,16.70
2023-05-20T22:11:54.497Z,16.51
2023-05-20T22:14:42.261Z,16.73
2023-05-20T22:17:34.196Z,16.76
2023-05-20T22:20:22.542Z,16.63
2023-05-20T22:23:10.496Z,16.78
2023-05-20T22:25:59.604Z,16.69
2023-05-20T22:28:47.685Z,16.94
2023-05-20T22:31:35.495Z,16.82
2023-05-20T22:34:23.240Z,17.07
2023-05-20T22:37:11.806Z,16.64
2023-05-20T22:39:59.529Z,16.90
2023-05-20T22:42:48.898Z,16.82
2023-05-20T22:45:36.771Z,16.94
2023-05-20T22:48:24.702Z,16.90
2023-05-20T22:51:14.401Z,16.92
2023-05-20T22:54:02.066Z,16.73
2023-05-20T22:56:56.780Z,16.65
2023-05-20T22:59:45.903Z,16.78
2023-05-20T23:02:33.710Z,16.73
2023-05-20T23:05:21.605Z,16.88
2023-05-20T23:08:09.244Z,16.75
2023-05-20T23:10:57.274Z,16.77
2023-05-20T23:13:44.993Z,16.70
2023-05-20T23:16:34.346Z,16.75
2023-05-20T23:19:22.096Z,16.73
2023-05-20T23:22:10.122Z,16.73
2023-05-20T23:24:57.869Z,16.81
2023-05-20T23:27:45.580Z,16.81
2023-05-20T23:30:33.455Z,16.73
2023-05-20T23:33:25.497Z,16.63
2023-05-20T23:36:13.501Z,16.54
2023-05-20T23:39:01.689Z,16.51
2023-05-20T23:41:49.428Z,16.50
2023-05-20T23:44:37.205Z,16.49
2023-05-20T23:47:26.051Z,16.51
2023-05-20T23:50:15.358Z,16.32
2023-05-20T23:53:03.056Z,16.67
2023-05-20T23:55:51.077Z,16.68
2023-05-20T23:58:38.792Z,16.80
